Weather observations for the past three days for
Altus, Altus/Quartz Mountain Regional Airport
Imperial (Metric)
Date Time (cdt) Wind (mph) Vis. (mi.) Weather Sky Cond. Temperature (ºF) Relative Humidity Wind Chill (°F) Heat Index (°F) Pressure Precipitation (in)
Air Dwpt 6 hour altimeter (in) sea level (mb) 1 hr 3 hr 6 hr
Max. Min.
01 10:55 S 15 10.00 Fair CLR 93.2 62.6 36% 94 30.05 0.0
01 10:35 S 14 10.00 Fair CLR 91.4 62.6 38% 92 30.04 0.0
01 10:15 S 14 10.00 Fair CLR 89.6 62.6 41% 90 30.05 0.0
01 09:55 S 8 10.00 Fair CLR 87.8 62.6 43% 88 30.05 0.0
01 09:35 SE 10 10.00 Fair CLR 84.2 60.8 45% 84 30.05 0.0
01 09:15 SE 9 10.00 Fair CLR 82.4 59 45% 82 30.05 0.0
01 08:55 SE 8 10.00 A Few Clouds FEW100 80.6 59 48% 81 30.05 0.0
01 08:35 E 8 10.00 Mostly Cloudy BKN100 77 59 54% 79 30.06 0.0
01 08:15 E 8 10.00 Partly Cloudy SCT100 77 59 54% 79 30.05 0.0
01 07:30 E 9 10.00 Partly Cloudy SCT100 75.2 57.2 54% 78 30.03 0.0
01 07:10 E 9 10.00 Mostly Cloudy BKN100 73.4 57.2 57% 30.03 0.0
01 06:55 E 9 10.00 Mostly Cloudy BKN100 73.4 57.2 57% 30.02 0.0
01 06:35 E 6 10.00 Partly Cloudy SCT100 73.4 57.2 57% 30.02 0.0
01 06:15 E 6 10.00 Partly Cloudy SCT100 75.2 57.2 54% 78 30.02 0.0
01 05:55 E 6 10.00 A Few Clouds FEW100 73.4 57.2 57% 30.02 0.0
01 05:29 E 6 10.00 Fair CLR 73.4 57.2 57% 30.01 0.0
01 05:16 E 6 10.00 Fair CLR 73.4 57.2 57% 30.01 0.0
01 04:53 E 6 10.00 Fair CLR 75.2 57.2 54% 78 30.01 0.0
01 04:32 SE 6 10.00 Fair CLR 75.2 57.2 54% 78 30.01 0.0
01 04:08 SE 7 10.00 A Few Clouds FEW100 77 57.2 51% 79 30.01 0.0
01 02:56 E 8 10.00 Fair CLR 77 57.2 51% 79 30.01 0.0
01 02:38 SE 7 10.00 Fair CLR 77 57.2 51% 79 30.01 0.0
01 02:16 E 9 10.00 Fair CLR 78.8 57.2 48% 80 30.01 0.0
01 01:48 SE 9 10.00 Fair CLR 80.6 57.2 45% 81 30 0.0
01 01:35 SE 10 10.00 Fair CLR 80.6 55.4 42% 81 30 0.0
01 01:08 SE 10 10.00 Fair CLR 82.4 55.4 40% 82 30 0.0
01 00:49 SE 10 10.00 Fair CLR 84.2 55.4 37% 83 30 0.0
01 00:26 SE 13 10.00 Fair CLR 84.2 55.4 37% 83 30 0.0
01 00:19 SE 14 10.00 Fair CLR 86 55.4 35% 85 29.99 0.0
01 00:02 SE 14 10.00 Fair CLR 86 55.4 35% 85 29.99 0.0
31 23:31 SE 14 10.00 Fair CLR 86 55.4 35% 85 29.99 0.0
31 23:06 SE 15 10.00 Fair CLR 87.8 53.6 31% 86 29.98 0.0
31 21:55 SE 10 10.00 Fair CLR 89.6 53.6 29% 87 29.96 0.0
31 21:07 SE 13 10.00 Fair CLR 89.6 55.4 31% 88 29.94 0.0
31 20:26 SE 10 10.00 Fair CLR 91.4 55.4 30% 90 29.92 0.0
31 19:51 SE 15 10.00 Fair CLR 95 55.4 26% 93 29.92 0.0
31 19:35 SE 15 10.00 Fair CLR 96.8 55.4 25% 95 29.92 0.0
31 19:15 SE 15 10.00 Fair CLR 96.8 55.4 25% 95 29.92 0.0
31 18:35 SE 17 10.00 Fair CLR 98.6 55.4 24% 97 29.92 0.0
31 18:15 SE 14 G 20 10.00 Fair CLR 98.6 55.4 24% 97 29.92 0.0
31 17:55 S 13 G 23 10.00 Fair CLR 100.4 55.4 22% 99 29.92 0.0
31 17:35 S 15 G 22 10.00 Partly Cloudy SCT095 100.4 57.2 24% 100 29.93 0.0
31 17:15 S 16 G 22 10.00 Mostly Cloudy BKN095 100.4 57.2 24% 100 29.93 0.0
31 16:55 S 13 G 18 10.00 Mostly Cloudy BKN095 100.4 55.4 22% 99 29.93 0.0
31 16:35 Vrbl 6 G 17 10.00 Fair CLR 98.6 55.4 24% 97 29.93 0.0
31 16:15 SE 10 G 21 10.00 Partly Cloudy SCT090 100.4 57.2 24% 100 29.94 0.0
31 15:55 S 10 G 17 10.00 Partly Cloudy SCT090 100.4 57.2 24% 100 29.95 0.0
31 15:35 SE 13 G 21 10.00 A Few Clouds FEW090 100.4 57.2 24% 100 29.95 0.0
31 15:15 SE 13 10.00 Fair CLR 98.6 57.2 25% 98 29.96 0.0
31 14:55 SE 8 G 20 10.00 A Few Clouds FEW085 98.6 59 27% 98 29.97 0.0
31 14:35 SE 14 10.00 Mostly Cloudy BKN090 100.4 60.8 27% 101 29.98 0.0
31 14:15 S 14 9.00 Partly Cloudy SCT080 SCT095 98.6 60.8 29% 99 29.98 0.0
31 13:55 SE 8 G 17 10.00 A Few Clouds FEW090 98.6 60.8 29% 99 29.99 0.0
31 13:35 S 8 G 17 10.00 A Few Clouds FEW095 98.6 59 27% 98 30 0.0
31 13:15 S 12 G 18 10.00 Fair CLR 96.8 60.8 30% 97 30.01 0.0
31 12:55 S 9 G 17 10.00 Fair CLR 96.8 62.6 32% 98 30.01 0.0
31 12:35 SW 10 G 17 10.00 Fair CLR 96.8 62.6 32% 98 30.02 0.0
31 12:15 S 12 10.00 Fair CLR 95 64.4 36% 97 30.03 0.0
31 11:55 S 13 10.00 Fair CLR 95 64.4 36% 97 30.03 0.0
31 11:35 S 10 G 17 10.00 Fair CLR 93.2 64.4 39% 95 30.03 0.0
31 11:15 S 12 G 17 10.00 Fair CLR 93.2 64.4 39% 95 30.04 0.0
31 10:55 SW 10 G 20 10.00 Fair CLR 91.4 64.4 41% 93 30.04 0.0
31 10:35 S 13 10.00 A Few Clouds FEW100 89.6 64.4 43% 91 30.04 0.0
31 10:15 S 14 10.00 Partly Cloudy SCT100 87.8 64.4 46% 89 30.04 0.0
31 09:55 S 14 10.00 Partly Cloudy SCT100 87.8 62.6 43% 88 30.03 0.0
31 09:35 S 14 10.00 Partly Cloudy SCT100 86 62.6 46% 87 30.03 0.0
31 09:15 S 9 10.00 A Few Clouds FEW100 84.2 62.6 48% 85 30.03 0.0
31 08:55 S 10 10.00 Fair CLR 82.4 62.6 51% 83 30.03 0.0
31 08:34 SE 9 10.00 Fair CLR 80.6 60.8 51% 81 30.02 0.0
31 08:09 SE 7 10.00 Fair CLR 77 60.8 57% 79 30.01 0.0
31 07:51 SE 7 10.00 Fair CLR 75.2 59 57% 78 30 0.0
31 07:27 E 7 10.00 Fair CLR 73.4 59 61% 29.99 0.0
31 07:06 E 7 10.00 Fair CLR 73.4 59 61% 29.98 0.0
31 06:34 SE 8 10.00 Fair CLR 73.4 59 61% 29.98 0.0
31 06:15 E 8 10.00 Fair CLR 73.4 59 61% 29.97 0.0
31 05:55 SE 7 10.00 Fair CLR 75.2 59 57% 78 29.97 0.0
31 05:35 E 7 10.00 Fair CLR 75.2 57.2 54% 78 29.97 0.0
31 05:07 SE 7 10.00 Fair CLR 75.2 57.2 54% 78 29.97 0.0
31 04:55 E 8 10.00 Fair CLR 75.2 57.2 54% 78 29.96 0.0
31 04:35 E 7 10.00 Fair CLR 75.2 57.2 54% 78 29.96 0.0
31 04:15 SE 7 10.00 Fair CLR 77 57.2 51% 79 29.96 0.0
31 03:55 SE 7 10.00 Fair CLR 77 57.2 51% 79 29.95 0.0
31 03:35 SE 8 10.00 Fair CLR 78.8 57.2 48% 80 29.95 0.0
31 03:15 SE 12 10.00 Fair CLR 80.6 57.2 45% 81 29.95 0.0
31 02:55 SE 12 10.00 Fair CLR 82.4 55.4 40% 82 29.95 0.0
31 02:35 SE 13 10.00 Fair CLR 82.4 55.4 40% 82 29.94 0.0
31 02:15 SE 12 10.00 Fair CLR 82.4 55.4 40% 82 29.94 0.0
31 01:55 SE 13 10.00 Fair CLR 82.4 55.4 40% 82 29.94 0.0
31 01:35 SE 13 10.00 Fair CLR 84.2 53.6 35% 83 29.94 0.0
31 01:15 SE 14 10.00 Fair CLR 84.2 53.6 35% 83 29.94 0.0
31 00:55 SE 15 10.00 Fair CLR 84.2 53.6 35% 83 29.94 0.0
31 00:35 SE 16 10.00 Fair CLR 86 53.6 33% 84 29.93 0.0
31 00:15 SE 16 10.00 Fair CLR 86 53.6 33% 84 29.93 0.0
30 23:51 SE 15 10.00 Fair CLR 86 53.6 33% 84 29.93 0.0
30 23:40 SE 15 G 21 10.00 Fair CLR 86 53.6 33% 84 29.93 0.0
30 23:21 SE 16 10.00 Fair CLR 87.8 55.4 33% 86 29.93 0.0
30 21:54 SE 13 10.00 Fair CLR 91.4 55.4 30% 90 29.91 0.0
30 21:31 SE 13 10.00 Fair CLR 91.4 55.4 30% 90 29.9 0.0
30 20:56 SE 12 10.00 Fair CLR 93.2 55.4 28% 91 29.89 0.0
30 20:32 SE 13 10.00 Fair CLR 93.2 55.4 28% 91 29.88 0.0
30 20:15 SE 12 10.00 Fair CLR 95 55.4 26% 93 29.87 0.0
30 19:55 S 15 10.00 Fair CLR 96.8 55.4 25% 95 29.87 0.0
30 19:35 S 13 10.00 Fair CLR 98.6 55.4 24% 97 29.87 0.0
30 19:15 S 17 10.00 Fair CLR 100.4 55.4 22% 99 29.86 0.0
30 18:55 S 14 10.00 Fair CLR 100.4 55.4 22% 99 29.87 0.0
30 18:35 S 17 10.00 Fair CLR 102.2 55.4 21% 101 29.87 0.0
30 18:15 S 12 G 21 10.00 Fair CLR 102.2 55.4 21% 101 29.87 0.0
30 17:55 S 16 10.00 Fair CLR 102.2 55.4 21% 101 29.87 0.0
30 17:35 S 18 G 26 10.00 Fair CLR 102.2 57.2 23% 102 29.87 0.0
30 17:15 S 12 G 21 10.00 Fair CLR 102.2 55.4 21% 101 29.87 0.0
30 16:55 S 10 G 24 10.00 Fair CLR 102.2 57.2 23% 102 29.88 0.0
30 16:35 S 16 G 23 10.00 Fair CLR 102.2 57.2 23% 102 29.88 0.0
30 16:15 S 13 G 23 10.00 Fair CLR 102.2 57.2 23% 102 29.89 0.0
30 15:55 S 14 G 26 10.00 A Few Clouds FEW090 FEW220 102.2 57.2 23% 102 29.89 0.0
30 15:35 S 17 10.00 A Few Clouds FEW090 FEW220 102.2 59 24% 102 29.9 0.0
30 15:15 S 14 G 24 10.00 Partly Cloudy SCT090 102.2 59 24% 102 29.91 0.0
30 14:55 S 12 G 22 10.00 Partly Cloudy SCT090 102.2 59 24% 102 29.92 0.0
30 14:35 S 17 G 26 6.00 A Few Clouds with Haze FEW085 102.2 59 24% 102 29.92 0.0
30 14:15 S 14 G 25 4.00 A Few Clouds with Haze FEW085 102.2 59 24% 102 29.93 0.0
30 13:55 S 20 6.00 A Few Clouds with Haze FEW080 100.4 60.8 27% 101 29.93 0.0
30 13:35 S 18 G 25 9.00 Fair CLR 100.4 60.8 27% 101 29.94 0.0
30 13:15 S 20 10.00 Fair CLR 100.4 62.6 29% 102 29.95 0.0
30 12:55 SW 18 G 24 10.00 Fair CLR 100.4 62.6 29% 102 29.96 0.0
30 12:35 S 18 G 26 9.00 Fair CLR 98.6 62.6 31% 100 29.97 0.0
30 12:15 S 17 G 23 10.00 Fair CLR 96.8 62.6 32% 98 29.98 0.0
30 11:55 SW 14 G 22 10.00 Fair CLR 96.8 62.6 32% 98 29.99 0.0
30 11:35 SW 17 10.00 Fair CLR 95 62.6 34% 96 30 0.0
30 11:15 S 16 G 23 10.00 Fair CLR 95 62.6 34% 96 29.99 0.0
30 10:55 SW 17 G 24 10.00 Fair CLR 93.2 62.6 36% 94 29.99 0.0
30 10:15 S 18 10.00 Fair CLR 91.4 62.6 38% 92 30 0.0
30 09:55 S 15 10.00 Fair CLR 89.6 62.6 41% 90 30 0.0
30 09:35 S 15 G 22 10.00 Fair CLR 89.6 62.6 41% 90 30 0.0
30 09:15 S 16 10.00 Fair CLR 86 62.6 46% 87 30 0.0
30 08:55 S 14 10.00 Fair CLR 84.2 62.6 48% 85 30 0.0
30 08:31 S 12 10.00 Fair CLR 82.4 62.6 51% 83 30 0.0
30 08:18 SE 13 10.00 Fair CLR 80.6 62.6 54% 82 29.99 0.0
30 07:47 SE 10 10.00 Fair CLR 78.8 60.8 54% 80 29.98 0.0
30 07:24 SE 9 10.00 Fair CLR 77 60.8 57% 79 29.97 0.0
30 06:55 SE 8 10.00 Fair CLR 77 60.8 57% 79 29.96 0.0
30 06:35 SE 9 10.00 Fair CLR 77 60.8 57% 79 29.96 0.0
30 06:15 SE 7 10.00 Fair CLR 77 60.8 57% 79 29.96 0.0
30 05:55 SE 8 10.00 Fair CLR 77 59 54% 79 29.95 0.0
30 05:35 SE 8 10.00 Fair CLR 77 59 54% 79 29.95 0.0
30 05:09 SE 10 10.00 Fair CLR 78.8 59 51% 80 29.94 0.0
30 04:55 SE 9 10.00 Fair CLR 78.8 59 51% 80 29.94 0.0
30 04:35 SE 9 10.00 Fair CLR 78.8 59 51% 80 29.94 0.0
30 04:15 SE 9 10.00 Fair CLR 78.8 59 51% 80 29.94 0.0
30 03:51 S 12 10.00 Fair CLR 82.4 57.2 42% 82 29.94 0.0
30 03:35 S 12 10.00 Fair CLR 82.4 57.2 42% 82 29.94 0.0
30 03:08 S 12 10.00 Fair CLR 82.4 57.2 42% 82 29.95 0.0
30 03:04 S 12 G 18 10.00 Fair CLR 82.4 57.2 42% 82 29.95 0.0
30 02:12 SE 12 10.00 Fair CLR 82.4 57.2 42% 82 29.95 0.0
30 01:55 SE 12 10.00 Fair CLR 82.4 57.2 42% 82 29.95 0.0
30 01:29 SE 13 10.00 Fair CLR 84.2 57.2 40% 83 29.95 0.0
30 01:12 SE 14 10.00 Fair CLR 84.2 57.2 40% 83 29.95 0.0
30 00:51 SE 14 10.00 Fair CLR 86 57.2 38% 85 29.95 0.0
30 00:40 SE 15 10.00 Fair CLR 86 57.2 38% 85 29.95 0.0
30 00:20 SE 14 10.00 Fair CLR 86 55.4 35% 85 29.95 0.0
29 23:55 SE 13 10.00 Fair CLR 86 55.4 35% 85 29.95 0.0
29 23:32 SE 13 10.00 Fair CLR 86 55.4 35% 85 29.95 0.0
29 22:30 SE 13 10.00 Fair CLR 87.8 51.8 29% 85 29.94 0.0
29 22:10 SE 12 10.00 Fair CLR 89.6 51.8 27% 87 29.93 0.0
29 21:55 SE 12 10.00 Fair CLR 89.6 51.8 27% 87 29.93 0.0
29 21:41 SE 10 10.00 Fair CLR 89.6 51.8 27% 87 29.92 0.0
29 20:55 SE 9 10.00 Fair CLR 91.4 51.8 26% 89 29.91 0.0
29 20:13 SE 12 10.00 Fair CLR 95 50 22% 92 29.89 0.0
29 19:55 SE 14 10.00 Fair CLR 96.8 50 20% 94 29.89 0.0
29 19:35 SE 17 10.00 Fair CLR 98.6 50 19% 95 29.89 0.0
29 19:15 S 15 G 23 10.00 Fair CLR 100.4 51.8 20% 98 29.89 0.0
29 18:55 S 18 10.00 Fair CLR 100.4 53.6 21% 98 29.89 0.0
29 18:35 S 15 10.00 Fair CLR 102.2 51.8 18% 100 29.89 0.0
29 18:15 S 15 G 22 10.00 Fair CLR 102.2 51.8 18% 100 29.9 0.0
29 17:55 S 13 G 22 10.00 Fair CLR 102.2 53.6 20% 100 29.9 0.0
29 17:35 S 17 G 23 10.00 Fair CLR 102.2 53.6 20% 100 29.9 0.0
29 17:15 S 14 G 26 10.00 Fair CLR 102.2 53.6 20% 100 29.91 0.0
29 16:55 S 17 G 23 10.00 Fair CLR 104 53.6 19% 102 29.92 0.0
29 16:35 S 12 G 20 10.00 Fair CLR 102.2 53.6 20% 100 29.92 0.0
29 16:15 S 18 10.00 Fair CLR 104 53.6 19% 102 29.93 0.0
29 15:55 S 8 G 15 10.00 Fair CLR 102.2 53.6 20% 100 29.94 0.0
29 15:35 S 15 G 23 9.00 Fair CLR 104 55.4 20% 103 29.95 0.0
29 15:15 S 14 G 20 10.00 Fair CLR 102.2 55.4 21% 101 29.96 0.0
29 14:55 S 18 10.00 Fair CLR 102.2 57.2 23% 102 29.97 0.0
29 14:35 S 18 7.00 Fair CLR 102.2 57.2 23% 102 29.98 0.0
29 14:15 SW 14 G 23 10.00 Fair CLR 102.2 57.2 23% 102 29.99 0.0
29 13:55 SW 14 G 22 10.00 Fair CLR 100.4 55.4 22% 99 29.99 0.0
29 13:35 SW 13 G 20 10.00 Fair CLR 100.4 57.2 24% 100 30 0.0
29 13:15 S 20 9.00 Fair CLR 100.4 57.2 24% 100 30.02 0.0
29 12:55 S 17 9.00 Fair CLR 98.6 57.2 25% 98 30.02 0.0
29 12:35 S 12 G 22 10.00 Fair CLR 98.6 57.2 25% 98 30.03 0.0
29 12:15 SW 15 G 22 9.00 Fair CLR 96.8 59 28% 96 30.04 0.0
29 11:55 SW 16 G 24 9.00 Fair CLR 96.8 60.8 30% 97 30.04 0.0
29 11:35 SW 16 10.00 Fair CLR 96.8 60.8 30% 97 30.05 0.0
29 11:15 S 13 10.00 Fair CLR 95 64.4 36% 97 30.05 0.0
Date Time (cdt) Wind (mph) Vis. (mi.) Weather Sky Cond. Air Dwpt Max. Min. Relative Humidity Wind Chill (°F) Heat Index (°F) altimeter (in) sea level (mb) 1 hr 3 hr 6 hr
6 hour
Temperature (ºF) Pressure Precipitation (in)